Time;durP1;ratioP1;P1;durP2;ratioP2;P2;SDS_P1;SDS_P2;PMS_P1;PMS_P2;Temp;Humidity;BMP_temperature;BMP_pressure;BME280_temperature;BME280_humidity;BME280_pressure;Samples;Min_cycle;Max_cycle;Signal;HPM_P1;HPM_P2
2023/12/31 00:01:35;;;;;;;1.10;0.70;;;;;;;6.47;60.18;100658.22;4996988;28;99148;-52
2023/12/31 00:04:01;;;;;;;2.13;0.80;;;;;;;6.42;60.38;100650.69;4999641;28;97107;-52
2023/12/31 00:06:26;;;;;;;2.90;1.27;;;;;;;6.40;60.52;100642.19;4996877;28;96898;-52
2023/12/31 00:08:52;;;;;;;6.27;1.43;;;;;;;6.40;60.31;100639.44;4995369;28;97188;-52
2023/12/31 00:11:17;;;;;;;3.80;0.90;;;;;;;6.41;60.52;100642.94;4995603;28;97619;-52
2023/12/31 00:13:43;;;;;;;2.13;1.40;;;;;;;6.38;60.49;100635.66;4996488;28;97375;-52
2023/12/31 00:16:13;;;;;;;1.00;0.83;;;;;;;6.37;60.51;100634.16;4996133;28;97423;-52
2023/12/31 00:18:38;;;;;;;3.40;1.00;;;;;;;6.36;60.49;100632.66;4995975;28;97053;-52
2023/12/31 00:21:04;;;;;;;1.30;0.83;;;;;;;6.33;60.45;100624.13;4998972;28;97470;-52
2023/12/31 00:23:29;;;;;;;5.50;0.87;;;;;;;6.31;60.49;100623.13;4998838;28;108885;-52
2023/12/31 00:25:54;;;;;;;1.47;0.90;;;;;;;6.28;60.68;100615.88;4995577;28;98879;-52
2023/12/31 00:28:19;;;;;;;1.60;1.00;;;;;;;6.26;60.53;100607.38;4998747;28;96827;-52
2023/12/31 00:30:45;;;;;;;2.90;0.93;;;;;;;6.25;60.59;100611.34;4995307;28;111599;-52
2023/12/31 00:33:10;;;;;;;2.73;0.90;;;;;;;6.23;60.60;100608.31;4994092;28;114423;-52
2023/12/31 00:35:35;;;;;;;2.30;0.93;;;;;;;6.21;60.61;100614.31;4995786;28;96738;-52
2023/12/31 00:38:01;;;;;;;3.23;1.50;;;;;;;6.18;60.45;100614.53;4998255;28;97187;-52
2023/12/31 00:40:26;;;;;;;2.43;0.73;;;;;;;6.09;60.51;100618.19;4994124;28;105371;-52
2023/12/31 00:42:51;;;;;;;2.80;0.90;;;;;;;6.07;60.51;100617.16;4997387;28;112494;-52
2023/12/31 00:45:17;;;;;;;1.63;1.10;;;;;;;6.02;60.57;100606.91;4994027;28;97098;-52
2023/12/31 00:47:42;;;;;;;2.10;0.90;;;;;;;6.00;60.58;100604.63;4997561;28;96883;-52
2023/12/31 00:50:07;;;;;;;1.57;0.67;;;;;;;5.97;60.71;100605.59;4994540;28;110780;-52
2023/12/31 00:52:33;;;;;;;4.03;0.87;;;;;;;5.98;60.67;100606.38;4994697;28;97556;-52
2023/12/31 00:54:58;;;;;;;1.13;0.87;;;;;;;5.96;60.80;100603.34;4993943;28;102452;-52
2023/12/31 00:57:23;;;;;;;2.83;1.00;;;;;;;5.94;60.71;100594.81;4996628;28;97601;-52
2023/12/31 00:59:49;;;;;;;1.43;0.57;;;;;;;5.92;60.61;100586.31;4996447;28;101316;-51
2023/12/31 01:02:14;;;;;;;1.00;0.90;;;;;;;5.90;60.63;100577.81;4994517;28;103814;-52
2023/12/31 01:04:39;;;;;;;3.10;1.37;;;;;;;5.88;60.64;100581.06;4996604;28;96830;-52
2023/12/31 01:07:05;;;;;;;0.70;0.70;;;;;;;5.86;60.74;100582.78;4991635;28;96703;-52
2023/12/31 01:09:30;;;;;;;3.13;1.30;;;;;;;5.84;60.85;100577.78;4995047;28;97464;-52
2023/12/31 01:11:55;;;;;;;3.63;1.27;;;;;;;5.82;60.88;100579.50;4994941;28;96960;-52
2023/12/31 01:14:20;;;;;;;1.47;0.93;;;;;;;5.79;60.90;100583.22;4994615;28;96696;-52
2023/12/31 01:16:46;;;;;;;3.37;0.93;;;;;;;5.77;60.95;100569.22;4997061;28;98303;-52
2023/12/31 01:19:11;;;;;;;2.90;0.97;;;;;;;5.75;60.92;100568.94;4994946;28;98375;-52
2023/12/31 01:21:37;;;;;;;2.30;1.33;;;;;;;5.73;60.92;100571.44;4997578;28;97848;-52
2023/12/31 01:24:03;;;;;;;1.90;1.00;;;;;;;5.68;60.92;100566.63;4995270;28;100681;-51
2023/12/31 01:26:28;;;;;;;4.20;1.40;;;;;;;5.68;61.08;100567.38;4996194;28;96951;-52
2023/12/31 01:28:53;;;;;;;2.40;0.73;;;;;;;5.63;61.21;100550.88;4995656;28;98656;-52
2023/12/31 01:31:19;;;;;;;2.93;0.70;;;;;;;5.66;61.05;100556.16;4993119;28;98761;-52
2023/12/31 01:33:45;;;;;;;1.73;1.10;;;;;;;5.66;61.10;100552.63;4994684;28;97058;-52
2023/12/31 01:36:14;;;;;;;4.53;1.10;;;;;;;5.64;61.21;100544.13;4993602;28;96800;-52
2023/12/31 01:38:40;;;;;;;1.37;0.80;;;;;;;5.64;61.15;100553.13;4998487;28;98613;-52
2023/12/31 01:41:07;;;;;;;2.30;1.13;;;;;;;5.63;61.10;100553.63;4993186;28;97233;-51
2023/12/31 01:43:32;;;;;;;2.77;1.00;;;;;;;5.63;61.27;100554.34;4997279;28;96991;-52
2023/12/31 01:45:57;;;;;;;2.20;1.10;;;;;;;5.65;61.28;100549.16;4995407;28;97079;-52
2023/12/31 01:48:23;;;;;;;1.87;1.00;;;;;;;5.64;61.34;100550.38;4993912;28;97172;-52
2023/12/31 01:50:49;;;;;;;0.80;0.80;;;;;;;5.67;61.24;100554.91;4992721;28;97265;-52
2023/12/31 01:53:14;;;;;;;4.90;1.00;;;;;;;5.67;61.30;100545.91;4996056;28;96984;-52
2023/12/31 01:55:41;;;;;;;1.83;1.00;;;;;;;5.66;61.42;100550.66;4991938;28;96966;-52
2023/12/31 01:58:06;;;;;;;1.30;1.03;;;;;;;5.67;61.40;100543.19;4994013;28;97739;-52
2023/12/31 02:00:32;;;;;;;1.90;0.90;;;;;;;5.66;61.44;100531.44;4992912;28;97670;-51
2023/12/31 02:02:58;;;;;;;0.90;0.90;;;;;;;5.69;61.49;100532.47;4994139;28;97298;-52
2023/12/31 02:05:24;;;;;;;1.53;0.80;;;;;;;5.73;61.46;100528.28;4992801;28;97372;-51
2023/12/31 02:07:49;;;;;;;2.80;0.83;;;;;;;5.75;61.48;100527.78;4996285;28;97241;-52
2023/12/31 02:10:16;;;;;;;0.80;0.60;;;;;;;5.77;61.54;100530.78;4994585;28;104662;-52
2023/12/31 02:12:41;;;;;;;1.30;1.00;;;;;;;5.79;61.35;100529.06;4995165;28;97240;-51
2023/12/31 02:15:08;;;;;;;0.80;0.70;;;;;;;5.82;61.57;100519.09;4995280;28;96995;-52
2023/12/31 02:17:33;;;;;;;2.60;0.90;;;;;;;5.83;61.71;100529.59;4995400;28;96993;-51
2023/12/31 02:19:59;;;;;;;1.13;0.70;;;;;;;5.86;61.60;100508.66;4994621;28;97415;-51
2023/12/31 02:22:25;;;;;;;1.07;0.93;;;;;;;5.90;61.64;100506.44;4989079;28;96879;-52
2023/12/31 02:24:53;;;;;;;1.67;0.70;;;;;;;5.93;61.73;100508.22;4988179;28;97289;-52
2023/12/31 02:27:18;;;;;;;2.03;0.77;;;;;;;5.96;61.78;100515.47;4992874;28;97422;-52
2023/12/31 02:29:44;;;;;;;2.17;1.20;;;;;;;6.02;61.72;100513.53;4992504;28;97017;-52
2023/12/31 02:32:09;;;;;;;1.77;1.00;;;;;;;6.04;61.66;100516.53;4991598;28;96875;-52
2023/12/31 02:34:35;;;;;;;5.83;1.40;;;;;;;6.06;61.85;100508.56;4990758;28;97293;-51
2023/12/31 02:37:00;;;;;;;1.77;1.03;;;;;;;6.08;61.78;100495.09;4992232;28;106969;-51
2023/12/31 02:39:25;;;;;;;0.83;0.73;;;;;;;6.11;61.80;100483.88;4994127;28;97072;-52
2023/12/31 02:41:51;;;;;;;1.50;0.90;;;;;;;6.13;61.96;100486.88;4991016;28;97121;-52
2023/12/31 02:44:17;;;;;;;2.30;0.90;;;;;;;6.14;61.87;100480.16;4992705;28;96904;-52
2023/12/31 02:46:42;;;;;;;2.03;1.03;;;;;;;6.15;61.97;100480.91;4991218;28;98455;-52
2023/12/31 02:49:11;;;;;;;2.87;0.90;;;;;;;6.13;61.83;100481.38;4992864;28;97006;-52
2023/12/31 02:51:36;;;;;;;1.03;0.90;;;;;;;6.12;61.89;100474.41;4994518;28;96714;-52
2023/12/31 02:54:02;;;;;;;2.73;0.93;;;;;;;6.09;61.92;100466.38;4992465;28;97181;-52
2023/12/31 02:56:27;;;;;;;1.17;0.80;;;;;;;6.08;61.87;100462.91;4992246;28;97235;-52
2023/12/31 02:58:53;;;;;;;5.00;0.90;;;;;;;6.06;61.87;100467.38;4990869;28;96839;-52
2023/12/31 03:01:18;;;;;;;1.53;0.87;;;;;;;6.02;61.94;100464.09;4992433;28;97067;-52
2023/12/31 03:03:43;;;;;;;2.13;1.13;;;;;;;6.00;62.01;100463.84;4992736;28;97153;-52
2023/12/31 03:06:14;;;;;;;2.10;0.97;;;;;;;6.00;62.17;100455.59;4991877;28;98711;-52
2023/12/31 03:08:39;;;;;;;4.50;1.10;;;;;;;6.00;62.11;100456.34;4992618;28;97212;-52
2023/12/31 03:11:07;;;;;;;1.50;0.87;;;;;;;6.01;62.13;100446.88;4993291;28;99098;-51
2023/12/31 03:13:32;;;;;;;1.90;1.30;;;;;;;6.03;62.26;100443.63;4991632;28;96961;-52
2023/12/31 03:16:04;;;;;;;1.50;1.13;;;;;;;6.03;62.25;100432.66;4991591;28;109689;-51
2023/12/31 03:18:29;;;;;;;3.20;0.77;;;;;;;6.05;62.27;100427.41;4992736;28;96930;-51
2023/12/31 03:20:54;;;;;;;1.27;0.70;;;;;;;6.08;62.32;100427.19;4994295;28;100378;-52
2023/12/31 03:23:20;;;;;;;2.40;0.90;;;;;;;6.12;62.31;100419.47;4991417;28;97050;-52
2023/12/31 03:25:45;;;;;;;2.13;0.70;;;;;;;6.14;62.32;100425.22;4991573;28;98501;-52
2023/12/31 03:28:10;;;;;;;1.17;1.07;;;;;;;6.14;62.28;100421.72;4997506;28;100856;-52
2023/12/31 03:30:36;;;;;;;2.40;0.87;;;;;;;6.10;62.40;100426.69;4993690;28;100860;-52
2023/12/31 03:33:03;;;;;;;0.80;0.80;;;;;;;6.08;62.36;100415.47;4996907;28;97065;-52
2023/12/31 03:35:29;;;;;;;2.20;0.80;;;;;;;6.08;62.51;100424.44;4991554;28;96810;-52
2023/12/31 03:37:55;;;;;;;4.50;1.20;;;;;;;6.14;62.31;100422.47;4990585;28;97077;-52
2023/12/31 03:40:21;;;;;;;1.63;0.70;;;;;;;6.16;62.42;100420.00;4992589;28;96889;-52
2023/12/31 03:42:46;;;;;;;2.83;0.93;;;;;;;6.20;62.38;100409.53;4990751;28;97245;-51
2023/12/31 03:45:11;;;;;;;1.13;0.97;;;;;;;6.19;62.47;100396.28;4990223;28;97558;-52
2023/12/31 03:47:37;;;;;;;1.50;0.80;;;;;;;6.21;62.47;100404.78;4992657;28;97244;-51
2023/12/31 03:50:02;;;;;;;2.40;1.10;;;;;;;6.25;62.39;100397.06;4990366;28;98005;-52
2023/12/31 03:52:28;;;;;;;1.00;0.67;;;;;;;6.25;62.38;100383.31;4994327;28;97200;-52
2023/12/31 03:54:54;;;;;;;1.97;0.87;;;;;;;6.25;62.39;100380.59;4993423;28;98479;-52
2023/12/31 03:57:19;;;;;;;3.07;0.87;;;;;;;6.22;62.55;100370.56;4991176;28;98441;-52
2023/12/31 03:59:44;;;;;;;3.10;1.00;;;;;;;6.18;62.49;100370.06;4992520;28;97097;-52
2023/12/31 04:02:10;;;;;;;1.40;0.70;;;;;;;6.17;62.67;100365.81;4994213;28;96756;-52
2023/12/31 04:04:35;;;;;;;1.47;1.03;;;;;;;6.17;62.72;100354.84;4993427;28;97091;-52
2023/12/31 04:07:00;;;;;;;1.37;0.90;;;;;;;6.18;62.72;100354.34;4991962;28;106730;-52
2023/12/31 04:09:26;;;;;;;4.50;1.00;;;;;;;6.22;62.77;100356.84;4991333;28;96991;-51
2023/12/31 04:11:51;;;;;;;4.77;0.90;;;;;;;6.26;62.71;100349.13;4992072;28;96868;-52
2023/12/31 04:14:16;;;;;;;1.20;0.73;;;;;;;6.26;62.74;100340.91;4991537;28;96968;-52
2023/12/31 04:16:42;;;;;;;4.00;0.93;;;;;;;6.27;62.81;100336.88;4990517;28;97806;-52
2023/12/31 04:19:08;;;;;;;3.23;0.90;;;;;;;6.29;62.73;100334.41;4991641;28;96596;-52
2023/12/31 04:21:33;;;;;;;1.07;0.77;;;;;;;6.29;62.83;100324.16;4994040;28;97035;-52
2023/12/31 04:23:58;;;;;;;5.23;0.77;;;;;;;6.30;62.59;100308.44;4994405;28;104149;-52
2023/12/31 04:26:24;;;;;;;2.10;0.80;;;;;;;6.27;62.82;100312.16;4998481;28;96740;-52
2023/12/31 04:28:49;;;;;;;1.00;0.90;;;;;;;6.29;62.78;100315.16;4996039;28;96930;-52
2023/12/31 04:31:15;;;;;;;4.40;1.40;;;;;;;6.30;62.81;100306.44;4994126;28;97426;-51
2023/12/31 04:33:40;;;;;;;1.47;0.77;;;;;;;6.32;62.82;100300.44;4997681;28;97661;-52
2023/12/31 04:36:06;;;;;;;3.53;1.13;;;;;;;6.34;62.93;100292.47;4995605;28;108688;-52
2023/12/31 04:38:32;;;;;;;2.40;0.90;;;;;;;6.32;62.87;100292.22;4997655;28;97381;-52
2023/12/31 04:40:58;;;;;;;0.93;0.83;;;;;;;6.35;62.85;100280.22;4995660;28;97032;-51
2023/12/31 04:43:23;;;;;;;1.77;0.97;;;;;;;6.37;62.98;100269.50;4994623;28;98015;-52
2023/12/31 04:45:48;;;;;;;1.33;0.97;;;;;;;6.40;62.93;100267.72;4996779;28;97742;-52
2023/12/31 04:48:14;;;;;;;2.03;0.80;;;;;;;6.42;62.79;100274.25;4993543;28;97785;-52
2023/12/31 04:50:39;;;;;;;2.50;1.17;;;;;;;6.41;62.93;100259.00;4994477;28;96972;-52
2023/12/31 04:53:05;;;;;;;0.60;0.60;;;;;;;6.41;62.88;100259.00;4993930;28;101359;-52
2023/12/31 04:55:30;;;;;;;4.97;1.20;;;;;;;6.39;62.99;100255.25;4995366;28;97249;-52
2023/12/31 04:57:55;;;;;;;1.03;0.87;;;;;;;6.38;62.95;100257.25;4995744;28;97181;-52
2023/12/31 05:00:21;;;;;;;0.87;0.70;;;;;;;6.38;62.99;100253.75;4995514;28;97041;-52
2023/12/31 05:02:46;;;;;;;2.33;0.90;;;;;;;6.37;62.84;100266.75;4995557;28;97404;-52
2023/12/31 05:05:12;;;;;;;2.20;0.93;;;;;;;6.36;62.96;100259.00;4997020;28;108985;-52
2023/12/31 05:07:38;;;;;;;1.20;0.73;;;;;;;6.34;63.03;100267.72;4994433;28;97538;-51
2023/12/31 05:10:04;;;;;;;0.80;0.77;;;;;;;6.35;62.90;100260.25;4994475;28;96833;-51
2023/12/31 05:12:30;;;;;;;1.73;1.07;;;;;;;6.33;62.67;100253.25;4993383;28;97986;-52
2023/12/31 05:14:55;;;;;;;1.10;1.00;;;;;;;6.34;63.05;100245.75;4993651;28;97133;-52
2023/12/31 05:17:20;;;;;;;1.60;1.00;;;;;;;6.35;63.17;100243.75;4993852;28;96745;-52
2023/12/31 05:19:47;;;;;;;3.40;0.87;;;;;;;6.35;63.18;100238.28;4998436;28;97464;-51
2023/12/31 05:22:12;;;;;;;1.00;0.90;;;;;;;6.36;62.97;100231.50;4993529;28;97214;-51
2023/12/31 05:24:37;;;;;;;1.60;0.80;;;;;;;6.33;63.00;100222.25;4994254;28;97197;-52
2023/12/31 05:27:03;;;;;;;1.23;0.90;;;;;;;6.33;63.09;100222.25;4994524;28;97065;-52
2023/12/31 05:29:28;;;;;;;1.20;0.80;;;;;;;6.33;63.11;100225.00;4994779;28;97024;-51
2023/12/31 05:31:54;;;;;;;0.87;0.70;;;;;;;6.34;63.00;100221.03;4994841;28;97311;-52
2023/12/31 05:34:19;;;;;;;1.73;0.73;;;;;;;6.33;63.05;100225.78;4994877;28;104418;-52
2023/12/31 05:36:44;;;;;;;1.57;0.90;;;;;;;6.33;62.94;100230.50;4994228;28;100767;-52
2023/12/31 05:39:09;;;;;;;2.53;1.07;;;;;;;6.27;63.03;100210.53;4993928;28;97298;-51
2023/12/31 05:41:36;;;;;;;1.13;0.70;;;;;;;6.23;63.18;100216.28;4995788;28;97409;-52
2023/12/31 05:44:02;;;;;;;1.03;0.73;;;;;;;6.22;63.14;100197.53;4995131;28;97467;-52
2023/12/31 05:46:27;;;;;;;0.70;0.70;;;;;;;6.22;63.25;100192.78;4995009;28;96699;-52
2023/12/31 05:48:52;;;;;;;1.23;0.83;;;;;;;6.23;63.13;100197.03;4994341;28;97501;-52
2023/12/31 05:51:18;;;;;;;1.00;0.80;;;;;;;6.21;63.16;100193.28;4994205;28;98545;-52
2023/12/31 05:53:43;;;;;;;2.23;1.10;;;;;;;6.19;63.11;100179.31;4994621;28;98302;-51
2023/12/31 05:56:09;;;;;;;2.10;0.80;;;;;;;6.17;63.10;100185.31;4998235;28;97460;-52
2023/12/31 05:58:34;;;;;;;1.90;1.00;;;;;;;6.15;63.08;100181.56;4997354;28;97144;-52
2023/12/31 06:01:01;;;;;;;1.67;0.83;;;;;;;6.13;63.15;100186.78;4994169;28;97193;-52
2023/12/31 06:03:27;;;;;;;2.40;0.80;;;;;;;6.09;63.21;100175.28;4992365;28;98124;-52
2023/12/31 06:05:52;;;;;;;0.70;0.70;;;;;;;6.06;63.23;100177.03;4996526;28;96743;-52
2023/12/31 06:08:17;;;;;;;3.17;0.73;;;;;;;6.04;63.17;100173.28;4993572;28;97134;-52
2023/12/31 06:10:43;;;;;;;1.70;1.00;;;;;;;6.03;63.27;100166.28;4990330;28;104259;-51
2023/12/31 06:13:08;;;;;;;1.40;0.90;;;;;;;6.00;63.24;100161.81;4993470;28;98239;-52
2023/12/31 06:15:33;;;;;;;1.23;0.70;;;;;;;5.97;63.24;100155.31;4995903;28;97264;-52
2023/12/31 06:17:59;;;;;;;1.60;0.73;;;;;;;5.95;63.36;100163.28;4994610;28;96934;-52
2023/12/31 06:20:24;;;;;;;1.93;0.80;;;;;;;5.93;63.22;100159.53;4992635;28;97798;-51
2023/12/31 06:22:49;;;;;;;1.27;0.60;;;;;;;5.91;63.25;100145.56;4992126;28;97107;-52
2023/12/31 06:25:15;;;;;;;1.10;1.00;;;;;;;5.89;63.24;100151.53;4992252;28;96687;-52
2023/12/31 06:27:40;;;;;;;0.90;0.70;;;;;;;5.86;63.29;100147.03;4995389;28;97278;-52
2023/12/31 06:30:06;;;;;;;0.90;0.80;;;;;;;5.82;63.35;100135.56;4993567;28;98545;-52
2023/12/31 06:32:31;;;;;;;1.67;0.90;;;;;;;5.83;63.08;100139.03;4995870;28;97047;-52
2023/12/31 06:34:57;;;;;;;1.60;0.70;;;;;;;5.83;63.33;100133.53;4994577;28;97328;-51
2023/12/31 06:37:22;;;;;;;1.43;0.80;;;;;;;5.82;63.35;100132.81;4993118;28;97194;-52
2023/12/31 06:39:47;;;;;;;1.13;0.90;;;;;;;5.81;63.38;100136.78;4992029;28;97435;-52
2023/12/31 06:42:13;;;;;;;1.70;0.87;;;;;;;5.78;63.33;100137.81;4992647;28;96703;-52
2023/12/31 06:44:38;;;;;;;2.83;1.17;;;;;;;5.79;63.42;100125.56;4992925;28;97132;-52
2023/12/31 06:47:04;;;;;;;0.80;0.70;;;;;;;5.80;63.49;100120.84;4991350;28;97540;-52
2023/12/31 06:49:29;;;;;;;1.00;0.60;;;;;;;5.81;63.70;100116.81;4995428;28;97166;-52
2023/12/31 06:51:54;;;;;;;0.80;0.70;;;;;;;5.83;63.59;100119.81;4994348;28;97933;-52
2023/12/31 06:54:19;;;;;;;1.97;0.73;;;;;;;5.83;63.54;100117.84;4995115;28;96821;-52
2023/12/31 06:56:45;;;;;;;0.87;0.70;;;;;;;5.84;63.69;100130.31;4992541;28;97144;-52
2023/12/31 06:59:10;;;;;;;4.20;0.70;;;;;;;5.88;63.72;100119.09;4994711;28;107272;-52
2023/12/31 07:01:35;;;;;;;1.00;0.90;;;;;;;5.92;63.81;100106.63;4997966;28;105139;-52
2023/12/31 07:04:01;;;;;;;0.93;0.90;;;;;;;6.00;63.80;100104.16;4992042;28;97308;-52
2023/12/31 07:06:26;;;;;;;1.17;0.80;;;;;;;6.03;63.74;100100.38;4995683;28;96901;-52
2023/12/31 07:08:51;;;;;;;1.67;0.70;;;;;;;6.04;63.49;100093.66;4991847;28;97338;-52
2023/12/31 07:11:17;;;;;;;1.07;0.60;;;;;;;6.04;63.65;100105.41;4992928;28;97130;-52
2023/12/31 07:13:43;;;;;;;2.90;0.90;;;;;;;6.06;63.71;100107.63;4992909;28;97066;-52
2023/12/31 07:16:09;;;;;;;0.60;0.60;;;;;;;6.10;63.89;100108.13;4991919;28;96781;-51
2023/12/31 07:18:35;;;;;;;0.60;0.60;;;;;;;6.14;63.84;100090.16;4994256;28;97309;-52
2023/12/31 07:21:01;;;;;;;1.43;0.90;;;;;;;6.18;63.84;100090.66;4995312;28;97167;-52
2023/12/31 07:23:27;;;;;;;0.70;0.60;;;;;;;6.19;63.90;100083.19;4995820;28;96686;-52
2023/12/31 07:25:52;;;;;;;0.60;0.50;;;;;;;6.22;63.83;100076.66;4993247;28;96977;-52
2023/12/31 07:28:17;;;;;;;0.90;0.90;;;;;;;6.23;63.88;100078.19;4993721;28;105861;-52
2023/12/31 07:30:44;;;;;;;3.60;0.70;;;;;;;6.23;63.84;100078.19;4989915;28;102405;-52
2023/12/31 07:33:10;;;;;;;1.33;0.70;;;;;;;6.24;63.82;100063.22;4992336;28;96676;-52
2023/12/31 07:35:36;;;;;;;1.73;0.60;;;;;;;6.24;63.96;100047.47;4994744;28;96761;-52
2023/12/31 07:38:07;;;;;;;0.60;0.57;;;;;;;6.24;63.88;100058.44;4992389;28;98534;-52
2023/12/31 07:40:32;;;;;;;0.87;0.87;;;;;;;6.23;63.92;100069.94;4993617;28;97780;-52
2023/12/31 07:42:58;;;;;;;2.27;0.80;;;;;;;6.25;64.02;100064.69;4991480;28;96882;-52
2023/12/31 07:45:23;;;;;;;0.83;0.60;;;;;;;6.28;63.95;100063.69;4994031;28;96932;-51
2023/12/31 07:47:49;;;;;;;0.80;0.70;;;;;;;6.29;63.91;100057.69;4993818;28;96818;-53
2023/12/31 07:50:14;;;;;;;0.70;0.63;;;;;;;6.28;64.07;100060.97;4992122;28;96842;-52
2023/12/31 07:52:39;;;;;;;1.53;0.67;;;;;;;6.34;64.08;100039.72;4993562;28;96786;-52
2023/12/31 07:55:09;;;;;;;3.73;1.00;;;;;;;6.38;63.95;100045.69;4993148;28;97251;-52
2023/12/31 07:57:35;;;;;;;2.60;0.70;;;;;;;6.40;63.87;100026.72;4996961;28;97318;-52
2023/12/31 08:00:01;;;;;;;0.83;0.83;;;;;;;6.39;63.94;100029.97;4995003;28;97307;-52
2023/12/31 08:02:29;;;;;;;1.97;0.80;;;;;;;6.39;64.01;100035.47;4998077;28;97872;-52
2023/12/31 08:04:54;;;;;;;2.03;0.87;;;;;;;6.41;63.92;100027.47;4993958;28;99724;-52
2023/12/31 08:07:20;;;;;;;0.90;0.73;;;;;;;6.44;63.95;100029.22;4995708;28;97531;-52
2023/12/31 08:09:45;;;;;;;0.97;0.60;;;;;;;6.47;64.12;100028.19;4995255;28;97137;-52
2023/12/31 08:12:10;;;;;;;3.63;1.00;;;;;;;6.45;63.90;100023.22;4997199;28;97123;-52
2023/12/31 08:14:35;;;;;;;1.00;0.80;;;;;;;6.48;63.75;100016.69;4997891;28;97160;-52
2023/12/31 08:17:02;;;;;;;1.70;0.83;;;;;;;6.51;64.00;100015.69;4993466;28;101088;-52
2023/12/31 08:19:27;;;;;;;1.10;1.00;;;;;;;6.55;63.88;100016.19;4996651;28;97643;-52
2023/12/31 08:21:52;;;;;;;1.00;0.90;;;;;;;6.57;63.92;100013.69;4996897;28;98320;-52
2023/12/31 08:24:20;;;;;;;1.73;1.10;;;;;;;6.62;63.97;100015.69;4996359;28;97280;-52
2023/12/31 08:26:46;;;;;;;1.57;0.73;;;;;;;6.64;63.89;100009.69;4997272;28;98630;-52
2023/12/31 08:29:11;;;;;;;1.80;0.70;;;;;;;6.69;63.83;99997.94;4997153;28;96722;-52
2023/12/31 08:31:36;;;;;;;1.47;0.80;;;;;;;6.72;63.68;100003.16;4995219;28;97164;-52
2023/12/31 08:34:02;;;;;;;1.43;0.93;;;;;;;6.77;63.78;100001.66;4995773;28;96976;-52
2023/12/31 08:36:28;;;;;;;0.80;0.70;;;;;;;6.82;63.61;99995.41;4994674;28;97557;-52
2023/12/31 08:38:54;;;;;;;0.90;0.80;;;;;;;6.83;63.57;99986.63;4993255;28;98265;-52
2023/12/31 08:41:19;;;;;;;1.03;0.93;;;;;;;6.84;63.71;99993.63;4995438;28;97006;-52
2023/12/31 08:43:45;;;;;;;1.23;1.07;;;;;;;6.86;63.58;99991.13;4992059;28;96826;-53
2023/12/31 08:46:11;;;;;;;0.90;0.80;;;;;;;6.89;63.58;99984.63;4994576;28;98681;-53
2023/12/31 08:48:36;;;;;;;1.73;0.73;;;;;;;6.92;63.49;99977.34;4993775;28;97196;-52
2023/12/31 08:51:02;;;;;;;2.53;1.23;;;;;;;6.94;63.45;99972.84;4995781;28;96721;-52
2023/12/31 08:53:28;;;;;;;1.17;0.67;;;;;;;6.94;63.48;99975.59;4997892;28;97122;-52
2023/12/31 08:55:53;;;;;;;0.97;0.60;;;;;;;6.98;63.50;99964.34;4995842;28;97810;-52
2023/12/31 08:58:18;;;;;;;0.90;0.70;;;;;;;6.98;63.37;99956.81;4994177;28;96994;-53
2023/12/31 09:00:44;;;;;;;2.03;0.70;;;;;;;6.98;63.29;99969.84;4994130;28;98991;-52
2023/12/31 09:03:09;;;;;;;0.80;0.80;;;;;;;7.01;63.21;99971.56;4994228;28;97024;-52
2023/12/31 09:05:34;;;;;;;2.20;0.90;;;;;;;7.02;63.21;99960.06;4994088;28;97733;-53
2023/12/31 09:08:02;;;;;;;4.47;0.93;;;;;;;7.06;63.31;99957.03;4994859;28;96984;-53
2023/12/31 09:10:27;;;;;;;2.10;0.70;;;;;;;7.08;63.38;99960.03;4997544;28;96922;-53
2023/12/31 09:12:53;;;;;;;2.00;0.60;;;;;;;7.11;63.09;99961.00;4994853;28;96602;-53
2023/12/31 09:15:18;;;;;;;0.70;0.60;;;;;;;7.12;63.34;99944.00;4995114;28;98527;-53
2023/12/31 09:17:43;;;;;;;1.60;1.03;;;;;;;7.14;63.20;99944.22;4994199;28;97296;-52
2023/12/31 09:20:09;;;;;;;3.33;0.73;;;;;;;7.17;63.23;99950.72;4994734;28;96755;-52
2023/12/31 09:22:35;;;;;;;0.70;0.70;;;;;;;7.20;63.04;99952.47;4996584;28;97159;-53
2023/12/31 09:25:01;;;;;;;1.37;0.70;;;;;;;7.23;63.06;99943.16;4994335;28;97727;-52
2023/12/31 09:27:26;;;;;;;4.40;1.30;;;;;;;7.24;63.05;99953.69;4996453;28;98512;-53
2023/12/31 09:29:51;;;;;;;0.80;0.80;;;;;;;7.26;63.01;99942.16;4993573;28;97139;-53
2023/12/31 09:32:16;;;;;;;0.80;0.80;;;;;;;7.23;63.05;99930.16;4995150;28;96969;-53
2023/12/31 09:34:42;;;;;;;0.93;0.93;;;;;;;7.25;62.96;99922.16;4994812;28;101816;-53
2023/12/31 09:37:08;;;;;;;2.50;0.70;;;;;;;7.27;63.04;99916.16;4994893;28;97180;-52
2023/12/31 09:39:33;;;;;;;0.60;0.57;;;;;;;7.29;62.87;99910.88;4995321;28;97191;-52
2023/12/31 09:42:23;;;;;;;1.77;0.60;;;;;;;7.29;63.16;99913.63;4992813;28;97256;-53
2023/12/31 09:44:50;;;;;;;1.07;0.70;;;;;;;7.27;63.18;99913.41;4995703;28;97082;-52
2023/12/31 09:47:16;;;;;;;0.87;0.87;;;;;;;7.30;62.97;99918.63;4994103;28;97171;-52
2023/12/31 09:49:43;;;;;;;4.10;0.77;;;;;;;7.30;63.07;99907.63;4995251;28;97176;-52
2023/12/31 09:52:09;;;;;;;1.13;1.00;;;;;;;7.31;63.12;99905.63;4995389;28;96675;-52
2023/12/31 09:54:37;;;;;;;1.20;0.67;;;;;;;7.32;62.91;99894.09;4984620;28;100378;-53
2023/12/31 09:57:04;;;;;;;0.80;0.80;;;;;;;7.34;63.11;99902.56;4994053;28;97599;-53
2023/12/31 09:59:30;;;;;;;1.10;1.00;;;;;;;7.38;63.04;99894.03;4992268;28;96926;-53
2023/12/31 10:01:59;;;;;;;1.10;0.87;;;;;;;7.41;63.07;99884.75;4991614;28;97662;-53
2023/12/31 10:04:26;;;;;;;1.40;1.30;;;;;;;7.44;62.85;99878.97;4993384;28;96878;-53
2023/12/31 10:06:52;;;;;;;4.30;0.80;;;;;;;7.49;62.90;99880.94;4994133;28;97417;-53
2023/12/31 10:09:20;;;;;;;1.30;0.80;;;;;;;7.51;62.72;99886.66;4996393;28;97052;-53
2023/12/31 10:11:45;;;;;;;0.80;0.80;;;;;;;7.55;62.72;99886.41;4996374;28;97081;-53
2023/12/31 10:14:12;;;;;;;0.87;0.87;;;;;;;7.60;62.62;99889.09;4994798;28;97473;-53
2023/12/31 10:16:43;;;;;;;0.70;0.63;;;;;;;7.64;62.62;99894.31;4993036;28;96727;-53
2023/12/31 10:19:08;;;;;;;0.80;0.80;;;;;;;7.67;62.57;99868.53;4992102;28;97349;-53
2023/12/31 10:21:34;;;;;;;2.63;0.80;;;;;;;7.70;62.42;99862.00;4996000;28;97049;-53
2023/12/31 10:23:59;;;;;;;1.93;0.90;;;;;;;7.74;62.46;99845.94;4991967;28;98004;-53
2023/12/31 10:26:24;;;;;;;1.27;1.00;;;;;;;7.80;62.52;99841.84;4995145;28;97132;-53
2023/12/31 10:28:50;;;;;;;1.57;0.90;;;;;;;7.85;62.53;99829.28;4995402;28;97150;-53
2023/12/31 10:31:15;;;;;;;4.10;1.10;;;;;;;7.92;62.32;99825.97;4997514;28;96895;-53
2023/12/31 10:33:40;;;;;;;1.23;0.90;;;;;;;7.98;62.42;99828.66;4993005;28;97268;-53
2023/12/31 10:36:06;;;;;;;0.80;0.70;;;;;;;8.02;62.17;99818.84;4995697;28;109456;-53
2023/12/31 10:38:45;;;;;;;1.33;1.00;;;;;;;8.06;61.75;99824.78;4994912;28;97051;-53
2023/12/31 10:41:17;;;;;;;1.63;0.97;;;;;;;8.08;62.06;99816.75;4993198;28;97113;-53
2023/12/31 10:43:44;;;;;;;1.27;1.17;;;;;;;8.11;61.92;99818.47;4995944;28;97583;-53
2023/12/31 10:46:13;;;;;;;1.10;1.00;;;;;;;8.16;61.84;99820.44;4997202;28;96816;-53
2023/12/31 10:48:45;;;;;;;0.73;0.70;;;;;;;8.24;61.69;99820.59;4993937;28;96729;-53
2023/12/31 10:51:13;;;;;;;1.80;1.10;;;;;;;8.30;61.65;99813.00;4997854;28;96951;-53
2023/12/31 10:53:41;;;;;;;0.80;0.80;;;;;;;8.35;61.55;99803.91;4991008;28;97298;-53
2023/12/31 10:56:06;;;;;;;1.13;1.03;;;;;;;8.37;61.61;99802.13;4992493;28;97110;-53
2023/12/31 10:58:32;;;;;;;1.50;0.90;;;;;;;8.35;61.35;99788.13;4993066;28;97092;-53
2023/12/31 11:00:59;;;;;;;1.70;0.80;;;;;;;8.36;61.33;99784.09;4993268;28;96758;-53
2023/12/31 11:03:27;;;;;;;1.40;1.10;;;;;;;8.43;61.58;99777.25;4995457;28;96963;-53
2023/12/31 11:05:54;;;;;;;1.90;0.97;;;;;;;8.41;61.31;99769.50;4991184;28;96716;-53
2023/12/31 11:08:21;;;;;;;2.10;0.90;;;;;;;8.48;61.28;99768.16;4991787;28;96841;-53
2023/12/31 11:10:46;;;;;;;1.77;1.17;;;;;;;8.46;61.16;99771.44;4993738;28;97139;-53
2023/12/31 11:13:16;;;;;;;0.97;0.93;;;;;;;8.48;61.35;99768.16;4992751;28;97577;-53
2023/12/31 11:15:42;;;;;;;1.90;0.87;;;;;;;8.52;61.22;99755.56;4989707;28;98554;-53
2023/12/31 11:18:32;;;;;;;0.97;0.87;;;;;;;8.55;60.43;99737.25;4994270;28;97073;-53
2023/12/31 11:21:16;;;;;;;2.33;0.83;;;;;;;8.59;60.47;99753.47;4994429;28;96942;-53
2023/12/31 11:23:47;;;;;;;0.93;0.90;;;;;;;8.59;61.12;99751.47;4995277;28;96843;-53
2023/12/31 11:26:12;;;;;;;1.07;0.90;;;;;;;8.65;60.99;99748.59;4993658;28;97620;-53
2023/12/31 11:28:47;;;;;;;1.30;1.20;;;;;;;8.70;60.47;99751.28;4993520;28;96725;-53